Time;durP1;ratioP1;P1;durP2;ratioP2;P2;SDS_P1;SDS_P2;PMS_P1;PMS_P2;Temp;Humidity;BMP_temperature;BMP_pressure;BME280_temperature;BME280_humidity;BME280_pressure;Samples;Min_cycle;Max_cycle;Signal;HPM_P1;HPM_P2
2021/05/30 00:02:10;;;;;;;12.10;8.68;;;;;;;9.27;77.89;102024.59;5068850;28;20500;-51
2021/05/30 00:04:36;;;;;;;12.70;9.07;;;;;;;9.01;78.93;102027.47;5073307;28;20356;-52
2021/05/30 00:07:03;;;;;;;13.18;9.10;;;;;;;8.84;80.21;102033.16;5065013;28;20054;-53
2021/05/30 00:09:29;;;;;;;12.13;8.93;;;;;;;8.72;79.98;102030.25;5070353;28;20901;-51
2021/05/30 00:11:57;;;;;;;14.10;9.20;;;;;;;8.62;80.26;102023.06;5066077;28;20047;-49
2021/05/30 00:14:23;;;;;;;14.18;10.02;;;;;;;8.63;80.47;102027.44;5070278;28;20981;-48
2021/05/30 00:16:48;;;;;;;13.05;8.90;;;;;;;8.73;80.15;102031.16;5072378;28;20032;-50
2021/05/30 00:19:15;;;;;;;14.43;10.00;;;;;;;8.71;80.04;102025.91;5066507;28;20052;-50
2021/05/30 00:21:42;;;;;;;14.43;9.52;;;;;;;8.76;79.70;102034.69;5071071;28;20084;-51
2021/05/30 00:24:08;;;;;;;13.75;8.98;;;;;;;8.85;79.33;102029.72;5069919;28;20109;-52
2021/05/30 00:26:34;;;;;;;13.45;9.73;;;;;;;8.63;80.35;102024.84;5040043;28;20066;-50
2021/05/30 00:29:00;;;;;;;14.38;9.57;;;;;;;8.84;79.89;102027.94;5069998;28;20040;-50
2021/05/30 00:31:25;;;;;;;12.68;9.48;;;;;;;9.21;77.76;102027.94;5072891;28;20379;-49
2021/05/30 00:33:51;;;;;;;13.10;8.75;;;;;;;9.02;77.92;102031.84;5054199;28;20103;-48
2021/05/30 00:36:17;;;;;;;12.60;8.82;;;;;;;9.18;76.50;102033.09;5066977;28;20127;-52
2021/05/30 00:38:42;;;;;;;13.82;9.77;;;;;;;8.90;78.02;102024.59;5084400;28;20342;-51
2021/05/30 00:41:08;;;;;;;12.88;9.18;;;;;;;8.95;78.08;102035.16;5084936;28;20035;-52
2021/05/30 00:43:48;;;;;;;13.73;9.70;;;;;;;8.65;80.18;102034.47;5085943;28;20023;-51
2021/05/30 00:46:14;;;;;;;12.55;9.13;;;;;;;8.92;78.60;102035.09;5068017;27;20508;-52
2021/05/30 00:48:40;;;;;;;11.82;8.63;;;;;;;8.57;80.31;102025.56;5076107;28;20392;-48
2021/05/30 00:51:06;;;;;;;13.48;9.32;;;;;;;8.74;79.21;102033.78;5064070;28;20139;-53
2021/05/30 00:53:33;;;;;;;14.25;9.55;;;;;;;8.93;76.32;102023.78;5082717;28;20040;-50
2021/05/30 00:55:58;;;;;;;14.02;9.65;;;;;;;8.58;79.46;102026.44;5067580;28;20384;-50
2021/05/30 00:58:24;;;;;;;13.30;9.45;;;;;;;8.36;80.45;102033.66;5063575;28;20047;-48
2021/05/30 01:00:51;;;;;;;14.38;10.13;;;;;;;8.51;79.49;102021.06;5082794;28;20039;-49
2021/05/30 01:03:17;;;;;;;14.60;10.50;;;;;;;8.27;80.69;102025.63;5060206;28;20493;-48
2021/05/30 01:05:42;;;;;;;13.18;9.48;;;;;;;8.78;77.69;102022.59;5066403;28;20035;-48
2021/05/30 01:08:10;;;;;;;13.20;9.25;;;;;;;8.85;77.47;102021.03;5078757;28;20076;-53
2021/05/30 01:10:42;;;;;;;12.85;9.77;;;;;;;8.20;79.85;102024.56;5087650;28;20063;-49
2021/05/30 01:13:11;;;;;;;13.55;9.50;;;;;;;8.13;80.22;102030.44;5087305;28;20043;-50
2021/05/30 01:15:36;;;;;;;16.65;10.60;;;;;;;8.27;80.31;102023.00;5064327;28;20092;-49
2021/05/30 01:18:05;;;;;;;14.23;9.57;;;;;;;8.06;80.31;102029.41;5064801;28;20044;-51
2021/05/30 01:20:30;;;;;;;14.00;9.10;;;;;;;8.23;79.98;102026.38;5085721;28;20036;-51
2021/05/30 01:22:56;;;;;;;14.50;10.45;;;;;;;8.07;80.87;102028.56;5085431;28;20032;-49
2021/05/30 01:25:24;;;;;;;12.13;9.05;;;;;;;8.05;80.01;102037.16;5045552;28;20078;-51
2021/05/30 01:27:52;;;;;;;13.15;9.75;;;;;;;7.89;81.20;102033.25;5067407;28;20036;-49
2021/05/30 01:30:20;;;;;;;12.93;9.45;;;;;;;7.65;82.62;102032.56;5070165;28;20044;-51
2021/05/30 01:32:47;;;;;;;14.50;9.27;;;;;;;7.77;81.39;102033.78;5055005;28;20048;-49
2021/05/30 01:35:14;;;;;;;15.90;10.13;;;;;;;7.64;81.65;102028.22;5063228;28;20039;-52
2021/05/30 01:37:40;;;;;;;14.70;10.07;;;;;;;7.63;81.66;102029.06;5063380;28;20036;-48
2021/05/30 01:40:07;;;;;;;12.80;9.45;;;;;;;7.31;83.06;102036.78;5045845;28;20040;-51
2021/05/30 01:42:33;;;;;;;13.90;9.93;;;;;;;7.31;83.05;102034.19;5077916;28;20134;-49
2021/05/30 01:44:59;;;;;;;14.63;10.20;;;;;;;7.44;82.75;102040.63;5083523;28;20054;-51
2021/05/30 01:47:25;;;;;;;13.85;9.35;;;;;;;7.45;82.46;102037.19;5082714;28;20119;-50
2021/05/30 01:49:51;;;;;;;14.48;9.88;;;;;;;7.28;83.27;102028.00;5083965;28;20100;-53
2021/05/30 01:52:17;;;;;;;13.55;9.68;;;;;;;7.05;84.55;102035.06;5083216;28;20471;-53
2021/05/30 01:54:47;;;;;;;14.65;10.45;;;;;;;7.19;83.62;102036.41;5065538;28;20071;-51
2021/05/30 01:57:15;;;;;;;16.92;10.65;;;;;;;7.32;83.48;102029.84;5082068;28;20048;-48
2021/05/30 01:59:43;;;;;;;14.73;9.70;;;;;;;7.45;82.13;102037.19;5082630;28;20496;-49
2021/05/30 02:02:09;;;;;;;14.10;9.60;;;;;;;7.11;83.90;102041.34;5085340;28;20035;-48
2021/05/30 02:04:43;;;;;;;16.65;10.57;;;;;;;7.20;83.03;102034.66;5045464;28;20020;-53
2021/05/30 02:07:10;;;;;;;14.43;9.57;;;;;;;7.21;83.50;102041.66;5065153;28;20123;-50
2021/05/30 02:09:37;;;;;;;16.38;10.82;;;;;;;7.12;83.76;102034.44;5053322;28;20170;-49
2021/05/30 02:12:05;;;;;;;13.35;9.23;;;;;;;7.26;82.41;102045.28;5060592;28;20071;-50
2021/05/30 02:14:31;;;;;;;13.32;9.07;;;;;;;7.21;82.58;102037.31;5051141;28;20374;-50
2021/05/30 02:16:57;;;;;;;14.43;9.52;;;;;;;7.54;80.77;102036.59;5063182;28;20040;-50
2021/05/30 02:19:23;;;;;;;15.00;10.63;;;;;;;7.22;82.52;102036.50;5063350;27;20079;-51
2021/05/30 02:21:51;;;;;;;13.90;9.40;;;;;;;7.19;82.46;102033.81;5057055;27;20469;-52
2021/05/30 02:24:19;;;;;;;11.83;8.80;;;;;;;7.06;82.86;102035.16;5045202;27;20041;-50
2021/05/30 02:26:46;;;;;;;13.32;9.02;;;;;;;6.86;84.65;102031.88;5052376;28;20048;-51
2021/05/30 02:29:33;;;;;;;12.73;8.88;;;;;;;6.94;83.18;102032.16;5058002;27;20036;-53
2021/05/30 02:32:01;;;;;;;15.40;9.30;;;;;;;7.12;81.93;102032.72;5059017;28;20067;-49
2021/05/30 02:34:27;;;;;;;14.63;10.02;;;;;;;6.85;82.78;102032.72;5036432;28;20329;-49
2021/05/30 02:36:52;;;;;;;14.52;9.38;;;;;;;7.08;81.42;102036.06;5077315;28;20313;-52
2021/05/30 02:39:18;;;;;;;14.63;9.57;;;;;;;7.00;82.10;102037.53;5077761;28;20056;-51
2021/05/30 02:41:43;;;;;;;14.38;9.05;;;;;;;7.10;81.67;102034.41;5082966;28;20036;-49
2021/05/30 02:44:09;;;;;;;13.82;8.85;;;;;;;7.12;81.86;102034.44;5084296;28;20085;-54
2021/05/30 02:46:35;;;;;;;15.02;8.93;;;;;;;7.13;81.34;102024.09;5080806;28;20430;-51
2021/05/30 02:49:01;;;;;;;13.40;9.18;;;;;;;7.04;81.77;102030.72;5081223;28;20043;-51
2021/05/30 02:51:26;;;;;;;14.20;9.25;;;;;;;6.91;82.56;102026.81;5082630;28;20048;-51
2021/05/30 02:53:52;;;;;;;13.50;9.07;;;;;;;6.73;83.41;102032.31;5065273;28;20038;-50
2021/05/30 02:56:18;;;;;;;13.90;9.30;;;;;;;6.62;83.29;102031.97;5081434;28;20035;-52
2021/05/30 02:58:43;;;;;;;13.38;9.18;;;;;;;6.60;82.78;102046.63;5085367;28;20255;-50
2021/05/30 03:01:09;;;;;;;14.10;9.77;;;;;;;6.62;83.14;102042.38;5055896;28;20417;-49
2021/05/30 03:03:36;;;;;;;14.93;9.52;;;;;;;6.62;82.48;102039.78;5061963;28;20132;-54
2021/05/30 03:06:01;;;;;;;14.10;9.15;;;;;;;6.60;83.05;102037.09;5066070;28;20110;-52
2021/05/30 03:08:27;;;;;;;13.02;8.38;;;;;;;6.79;81.30;102043.81;5064651;28;20043;-49
2021/05/30 03:10:53;;;;;;;14.68;10.00;;;;;;;6.79;81.20;102038.59;5084161;28;20039;-53
2021/05/30 03:13:18;;;;;;;14.52;9.38;;;;;;;6.68;82.12;102039.09;5066181;28;20036;-49
2021/05/30 03:15:44;;;;;;;15.88;9.93;;;;;;;7.25;79.30;102030.50;5081431;28;20051;-49
2021/05/30 03:18:10;;;;;;;13.05;8.68;;;;;;;7.61;77.11;102037.66;5082585;28;21524;-49
2021/05/30 03:20:35;;;;;;;13.88;9.23;;;;;;;7.33;77.73;102037.69;5088888;28;20035;-51
2021/05/30 03:23:01;;;;;;;14.88;9.77;;;;;;;7.27;80.02;102042.72;5081293;28;20069;-51
2021/05/30 03:25:27;;;;;;;14.65;9.20;;;;;;;7.44;79.36;102030.22;5065448;28;20095;-49
2021/05/30 03:27:53;;;;;;;14.00;9.43;;;;;;;7.60;77.65;102036.78;5085203;28;20032;-53
2021/05/30 03:30:18;;;;;;;15.07;10.07;;;;;;;6.90;80.25;102036.34;5062838;28;20100;-51
2021/05/30 03:32:44;;;;;;;15.15;10.18;;;;;;;6.58;82.48;102033.59;5080831;28;20097;-50
2021/05/30 03:35:10;;;;;;;14.00;8.75;;;;;;;6.51;81.54;102030.72;5069285;28;20035;-51
2021/05/30 03:37:35;;;;;;;13.82;9.07;;;;;;;6.60;81.07;102036.22;5077934;28;20511;-50
2021/05/30 03:40:10;;;;;;;15.10;10.20;;;;;;;6.65;82.49;102034.69;5082496;28;20036;-51
2021/05/30 03:42:36;;;;;;;14.27;10.00;;;;;;;6.26;83.24;102043.75;5078974;28;20039;-51
2021/05/30 03:45:06;;;;;;;16.50;9.68;;;;;;;6.37;82.51;102046.72;5065031;28;20031;-50
2021/05/30 03:47:32;;;;;;;14.65;9.20;;;;;;;6.20;82.82;102045.25;5080048;28;20040;-49
2021/05/30 03:49:58;;;;;;;16.50;10.48;;;;;;;6.12;84.50;102052.78;5084680;28;20036;-50
2021/05/30 03:52:23;;;;;;;14.85;10.38;;;;;;;6.26;82.29;102048.06;5081659;28;20040;-49
2021/05/30 03:54:49;;;;;;;14.95;9.93;;;;;;;6.13;82.50;102055.44;5060857;28;20085;-50
2021/05/30 03:57:15;;;;;;;15.00;10.27;;;;;;;5.89;85.19;102046.72;5059379;28;20047;-50
2021/05/30 03:59:40;;;;;;;14.88;10.20;;;;;;;6.01;83.79;102047.19;5065723;28;20028;-51
2021/05/30 04:02:06;;;;;;;14.23;8.90;;;;;;;6.27;81.71;102042.94;5074543;28;20122;-53
2021/05/30 04:04:32;;;;;;;14.65;10.27;;;;;;;6.34;82.79;102043.13;5082932;28;20106;-54
2021/05/30 04:06:58;;;;;;;16.58;10.65;;;;;;;6.09;84.95;102047.44;5064109;28;20043;-51
2021/05/30 04:09:23;;;;;;;14.90;9.50;;;;;;;6.00;84.51;102050.63;5083058;28;20088;-51
2021/05/30 04:11:49;;;;;;;15.93;10.13;;;;;;;6.29;82.58;102045.56;5084142;28;20535;-52
2021/05/30 04:14:15;;;;;;;15.10;9.88;;;;;;;6.28;83.27;102051.59;5086605;28;20034;-52
2021/05/30 04:16:40;;;;;;;15.38;9.63;;;;;;;6.22;83.48;102051.41;5087559;28;20369;-52
2021/05/30 04:19:06;;;;;;;15.35;10.15;;;;;;;6.28;84.05;102049.00;5059706;28;20044;-51
2021/05/30 04:21:31;;;;;;;16.45;10.20;;;;;;;6.70;81.47;102045.22;5070452;28;20033;-51
2021/05/30 04:23:59;;;;;;;13.68;8.77;;;;;;;6.94;80.24;102046.03;5071827;28;20024;-51
2021/05/30 04:26:26;;;;;;;15.20;10.50;;;;;;;7.01;80.71;102048.84;5084681;28;20411;-49
2021/05/30 04:28:52;;;;;;;16.55;9.55;;;;;;;7.09;80.57;102042.13;5062883;28;20369;-50
2021/05/30 04:31:18;;;;;;;15.93;9.93;;;;;;;6.85;81.44;102040.50;5064665;28;20028;-51
2021/05/30 04:33:45;;;;;;;14.68;9.68;;;;;;;6.90;81.75;102043.28;5077591;28;20047;-51
2021/05/30 04:36:10;;;;;;;16.33;10.07;;;;;;;6.85;80.58;102043.13;5066501;28;20044;-49
2021/05/30 04:38:36;;;;;;;14.98;9.23;;;;;;;6.86;81.09;102049.22;5068012;28;20047;-51
2021/05/30 04:41:02;;;;;;;15.70;9.68;;;;;;;6.96;81.13;102043.47;5068660;28;20032;-50
2021/05/30 04:43:28;;;;;;;14.93;9.85;;;;;;;6.83;82.25;102044.78;5083765;28;20032;-52
2021/05/30 04:45:53;;;;;;;14.98;9.93;;;;;;;7.00;81.96;102047.94;5084321;28;20119;-50
2021/05/30 04:48:20;;;;;;;15.60;10.48;;;;;;;6.84;82.38;102051.78;5083926;28;20043;-51
2021/05/30 04:51:05;;;;;;;16.35;10.02;;;;;;;6.87;83.20;102048.34;5085843;28;20440;-52
2021/05/30 04:53:37;;;;;;;12.98;9.15;;;;;;;7.33;79.56;102058.50;5089786;28;20040;-49
2021/05/30 04:56:05;;;;;;;14.75;9.80;;;;;;;7.24;81.25;102055.66;5067833;28;20039;-49
2021/05/30 04:58:32;;;;;;;13.90;9.45;;;;;;;7.35;78.24;102058.56;5064849;28;20408;-52
2021/05/30 05:00:58;;;;;;;13.57;9.73;;;;;;;7.38;79.16;102061.28;5068392;28;20040;-49
2021/05/30 05:03:24;;;;;;;16.35;9.77;;;;;;;7.39;82.47;102056.94;5079774;28;20074;-50
2021/05/30 05:05:53;;;;;;;15.82;10.00;;;;;;;7.19;83.07;102058.94;5088379;28;20039;-50
2021/05/30 05:08:21;;;;;;;15.27;9.35;;;;;;;7.15;82.44;102057.94;5066384;28;20105;-49
2021/05/30 05:10:47;;;;;;;17.20;10.20;;;;;;;7.11;84.83;102056.94;5067292;28;20035;-52
2021/05/30 05:13:13;;;;;;;15.63;10.55;;;;;;;7.18;83.77;102054.56;5051673;28;20131;-49
2021/05/30 05:15:49;;;;;;;15.10;9.88;;;;;;;7.08;84.64;102050.78;5083501;28;20093;-49
2021/05/30 05:18:20;;;;;;;16.95;10.00;;;;;;;7.14;85.89;102054.47;5055400;28;20086;-49
2021/05/30 05:20:46;;;;;;;16.38;10.57;;;;;;;7.15;87.46;102052.75;5066305;28;20105;-54
2021/05/30 05:23:15;;;;;;;16.33;11.32;;;;;;;7.21;87.78;102063.31;5081429;28;20040;-52
2021/05/30 05:25:41;;;;;;;17.73;11.07;;;;;;;7.29;87.57;102058.38;5087684;28;20539;-50
2021/05/30 05:28:07;;;;;;;17.10;10.88;;;;;;;7.41;87.33;102057.88;5084743;28;20052;-49
2021/05/30 05:30:34;;;;;;;16.98;10.40;;;;;;;7.44;86.41;102058.84;5081030;28;20048;-50
2021/05/30 05:33:00;;;;;;;17.70;10.75;;;;;;;7.56;85.90;102062.66;5089054;28;20418;-50
2021/05/30 05:35:27;;;;;;;14.77;10.27;;;;;;;7.72;83.77;102061.41;5081571;28;20458;-51
2021/05/30 05:37:57;;;;;;;18.05;11.20;;;;;;;7.78;85.13;102057.25;5060673;28;20419;-53
2021/05/30 05:40:24;;;;;;;17.58;10.68;;;;;;;7.86;86.37;102061.81;5084113;28;20052;-50
2021/05/30 05:42:51;;;;;;;19.50;13.00;;;;;;;7.94;86.88;102057.69;5062840;28;20496;-52
2021/05/30 05:45:17;;;;;;;17.27;11.68;;;;;;;8.01;86.57;102057.03;5065642;28;20036;-49
2021/05/30 05:47:43;;;;;;;15.18;10.32;;;;;;;8.12;83.99;102055.59;5083869;28;20136;-52
2021/05/30 05:50:14;;;;;;;17.00;11.50;;;;;;;8.26;84.75;102047.28;5081423;28;20059;-51
2021/05/30 05:52:41;;;;;;;16.58;11.30;;;;;;;8.39;86.88;102046.78;5070159;28;20413;-51
2021/05/30 05:55:08;;;;;;;14.55;10.68;;;;;;;8.44;85.70;102050.38;5079582;28;20462;-52
2021/05/30 05:57:35;;;;;;;14.80;9.75;;;;;;;8.52;82.63;102048.00;5048626;28;20821;-49
2021/05/30 06:00:04;;;;;;;17.83;11.10;;;;;;;8.70;84.72;102045.00;5079933;28;20126;-50
2021/05/30 06:02:36;;;;;;;17.63;10.73;;;;;;;8.78;83.55;102050.41;5065143;28;20308;-50
2021/05/30 06:05:04;;;;;;;18.35;11.13;;;;;;;8.93;83.60;102049.88;5085796;28;20035;-52
2021/05/30 06:07:30;;;;;;;15.02;10.23;;;;;;;9.09;81.81;102057.22;5083570;28;20110;-49
2021/05/30 06:09:55;;;;;;;13.35;10.18;;;;;;;9.16;80.09;102064.34;5081160;28;20452;-52
2021/05/30 06:12:21;;;;;;;15.25;10.00;;;;;;;9.26;81.78;102059.34;5065764;28;20044;-53
2021/05/30 06:14:47;;;;;;;15.00;9.52;;;;;;;9.32;80.57;102059.50;5081823;28;20392;-53
2021/05/30 06:17:12;;;;;;;13.52;9.40;;;;;;;9.40;76.97;102071.00;5082336;28;20031;-50
2021/05/30 06:19:38;;;;;;;13.73;8.52;;;;;;;9.47;77.71;102067.69;5085160;28;20039;-52
2021/05/30 06:22:06;;;;;;;12.20;8.13;;;;;;;9.60;75.96;102071.44;5078949;28;20040;-52
2021/05/30 06:24:35;;;;;;;12.73;7.88;;;;;;;9.70;76.80;102070.78;5063326;28;20085;-53
2021/05/30 06:27:03;;;;;;;12.60;8.45;;;;;;;9.79;74.98;102072.72;5083095;28;20104;-50
2021/05/30 06:29:29;;;;;;;13.52;8.25;;;;;;;10.10;75.50;102073.31;5077987;28;20035;-49
2021/05/30 06:31:55;;;;;;;11.20;7.82;;;;;;;10.15;75.20;102065.56;5080945;28;20039;-50
2021/05/30 06:34:21;;;;;;;10.05;7.25;;;;;;;10.45;73.55;102065.31;5082175;28;20503;-50
2021/05/30 06:36:49;;;;;;;10.45;7.18;;;;;;;10.55;71.78;102069.00;5059328;28;20040;-49
2021/05/30 06:39:16;;;;;;;11.27;7.85;;;;;;;10.88;70.03;102058.22;5079837;28;20331;-52
2021/05/30 06:41:42;;;;;;;9.52;6.60;;;;;;;10.77;69.82;102067.59;5060527;28;20075;-49
2021/05/30 06:44:09;;;;;;;9.43;7.20;;;;;;;11.01;69.23;102067.13;5080325;28;20028;-50
2021/05/30 06:46:35;;;;;;;9.88;7.07;;;;;;;10.91;70.56;102060.00;5080819;28;20042;-53
2021/05/30 06:49:02;;;;;;;10.48;6.40;;;;;;;10.96;67.92;102060.94;5078845;28;20036;-50
2021/05/30 06:51:32;;;;;;;9.30;6.45;;;;;;;10.90;69.60;102068.72;5080941;28;20035;-50
2021/05/30 06:53:59;;;;;;;9.13;6.38;;;;;;;11.01;70.58;102061.03;5080089;28;20131;-51
2021/05/30 06:56:26;;;;;;;8.60;5.78;;;;;;;11.42;68.67;102073.84;5078714;28;20052;-53
2021/05/30 06:58:53;;;;;;;9.68;6.25;;;;;;;11.27;68.82;102071.00;5081648;28;20152;-50
2021/05/30 07:01:19;;;;;;;9.60;6.47;;;;;;;11.28;68.98;102072.78;5080869;28;20040;-51
2021/05/30 07:03:47;;;;;;;9.10;5.85;;;;;;;11.30;67.90;102074.56;5079862;28;20082;-49
2021/05/30 07:06:13;;;;;;;8.85;5.53;;;;;;;11.62;67.33;102075.88;5045576;28;20048;-50
2021/05/30 07:08:39;;;;;;;8.95;5.88;;;;;;;11.71;67.06;102075.97;5078270;28;20186;-49
2021/05/30 07:11:05;;;;;;;8.90;5.50;;;;;;;12.21;63.80;102072.25;5079406;28;20062;-49
2021/05/30 07:13:31;;;;;;;7.72;4.85;;;;;;;12.14;65.38;102073.03;5083152;28;20351;-51
2021/05/30 07:15:57;;;;;;;8.35;5.55;;;;;;;12.08;65.71;102073.84;5075047;28;20134;-50
2021/05/30 07:18:23;;;;;;;8.40;5.32;;;;;;;12.26;65.11;102066.19;5077762;28;20114;-50
2021/05/30 07:20:51;;;;;;;7.80;5.13;;;;;;;12.16;66.53;102076.59;5070345;28;20416;-50
2021/05/30 07:23:17;;;;;;;6.65;4.93;;;;;;;12.50;65.09;102064.72;5055709;28;20032;-50
2021/05/30 07:25:43;;;;;;;7.60;5.10;;;;;;;12.45;63.66;102058.53;5060650;28;20389;-50
2021/05/30 07:28:09;;;;;;;9.75;4.97;;;;;;;12.34;63.32;102066.28;5057563;28;20150;-50
2021/05/30 07:30:35;;;;;;;8.23;5.00;;;;;;;12.58;61.52;102064.75;5078770;28;20058;-53
2021/05/30 07:33:01;;;;;;;10.25;4.60;;;;;;;12.66;62.37;102062.22;5069856;28;20051;-51
2021/05/30 07:35:29;;;;;;;7.85;4.68;;;;;;;12.58;63.57;102063.00;5060969;28;20044;-52
2021/05/30 07:37:55;;;;;;;6.47;4.65;;;;;;;12.51;61.97;102058.56;5082196;28;20445;-49
2021/05/30 07:40:22;;;;;;;8.32;5.95;;;;;;;12.52;62.11;102062.09;5087198;28;20043;-52
2021/05/30 07:42:48;;;;;;;8.77;5.28;;;;;;;12.60;61.98;102063.03;5082765;28;20047;-51
2021/05/30 07:45:15;;;;;;;7.53;5.00;;;;;;;12.99;60.71;102059.00;5090483;28;20577;-50
2021/05/30 07:47:41;;;;;;;8.43;4.82;;;;;;;13.74;58.72;102065.59;5085530;28;20068;-51
2021/05/30 07:50:08;;;;;;;7.35;4.80;;;;;;;13.57;58.32;102069.00;5086293;28;20081;-52
2021/05/30 07:52:34;;;;;;;7.28;4.95;;;;;;;13.57;58.16;102063.75;5068365;28;20665;-50
2021/05/30 07:55:00;;;;;;;8.15;5.03;;;;;;;13.61;59.65;102070.78;5045893;28;20044;-50
2021/05/30 07:57:25;;;;;;;7.90;5.35;;;;;;;13.25;60.41;102066.16;5062966;28;20317;-50
2021/05/30 07:59:51;;;;;;;8.68;4.75;;;;;;;13.35;59.99;102062.75;5076027;28;20048;-50
2021/05/30 08:02:18;;;;;;;7.32;4.05;;;;;;;13.74;58.80;102068.22;5061016;28;20076;-53
2021/05/30 08:04:44;;;;;;;6.40;4.20;;;;;;;13.81;58.30;102059.50;5089881;28;20112;-50
2021/05/30 08:07:09;;;;;;;6.25;4.18;;;;;;;13.47;59.21;102059.31;5064186;28;20305;-50
2021/05/30 08:09:35;;;;;;;6.32;4.35;;;;;;;13.81;58.36;102062.13;5067064;28;20087;-53
2021/05/30 08:12:02;;;;;;;7.18;4.32;;;;;;;13.51;58.67;102058.47;5063348;28;20050;-50
2021/05/30 08:14:29;;;;;;;6.72;4.30;;;;;;;13.48;58.86;102062.84;5065541;28;20047;-51
2021/05/30 08:16:55;;;;;;;5.43;3.90;;;;;;;14.12;55.34;102054.31;5087544;28;20435;-49
2021/05/30 08:19:21;;;;;;;5.65;3.75;;;;;;;14.00;57.03;102056.91;5066199;28;20039;-51
2021/05/30 08:21:46;;;;;;;6.97;4.25;;;;;;;13.81;55.50;102053.38;5072146;28;20041;-52
2021/05/30 08:24:12;;;;;;;7.18;4.13;;;;;;;13.96;58.22;102059.53;5073133;28;20097;-50
2021/05/30 08:26:40;;;;;;;6.13;4.20;;;;;;;13.82;56.14;102055.09;5070186;28;20110;-51
2021/05/30 08:29:06;;;;;;;5.70;3.75;;;;;;;13.91;55.64;102053.38;5086141;28;20745;-53
2021/05/30 08:31:32;;;;;;;5.35;3.97;;;;;;;13.94;58.03;102050.78;5084906;28;20036;-51
2021/05/30 08:33:57;;;;;;;5.88;3.75;;;;;;;14.34;53.79;102051.75;5086815;28;20073;-52
2021/05/30 08:36:23;;;;;;;5.78;3.85;;;;;;;14.87;53.41;102047.41;5052822;28;20051;-51
2021/05/30 08:38:49;;;;;;;4.68;2.97;;;;;;;14.65;52.44;102044.81;5083246;28;20096;-51
2021/05/30 08:41:18;;;;;;;4.57;3.13;;;;;;;14.55;50.56;102045.63;5084636;28;20230;-53
2021/05/30 08:43:43;;;;;;;5.20;3.25;;;;;;;14.85;50.79;102055.31;5087752;28;20042;-51
2021/05/30 08:46:09;;;;;;;6.78;3.72;;;;;;;14.82;51.08;102050.06;5069599;28;20071;-54
2021/05/30 08:48:35;;;;;;;4.68;3.20;;;;;;;15.09;50.96;102049.19;5083855;28;20085;-51
2021/05/30 08:51:04;;;;;;;4.80;3.20;;;;;;;15.17;52.02;102051.78;5079194;28;20787;-50
2021/05/30 08:53:35;;;;;;;5.68;3.40;;;;;;;15.12;51.05;102045.66;5089292;28;20032;-49
2021/05/30 08:56:03;;;;;;;5.35;3.17;;;;;;;15.01;51.65;102050.03;5088803;28;20384;-51
2021/05/30 08:58:38;;;;;;;5.45;3.30;;;;;;;15.19;50.01;102050.03;5083961;28;20487;-51
2021/05/30 09:01:26;;;;;;;6.95;3.50;;;;;;;14.95;52.12;102041.28;5083567;28;20120;-50
2021/05/30 09:04:08;;;;;;;5.53;3.10;;;;;;;15.16;50.31;102039.50;5066430;28;20549;-51
2021/05/30 09:06:36;;;;;;;7.68;3.35;;;;;;;15.20;49.44;102045.63;5086614;28;20048;-52
2021/05/30 09:09:04;;;;;;;4.13;2.72;;;;;;;15.71;46.11;102045.50;5071025;28;20039;-53
2021/05/30 09:11:42;;;;;;;4.85;3.10;;;;;;;15.88;48.21;102041.06;5064915;28;20048;-50
2021/05/30 09:14:19;;;;;;;5.53;2.90;;;;;;;16.38;45.67;102035.47;5081908;28;20119;-51
2021/05/30 09:16:55;;;;;;;4.38;3.00;;;;;;;16.19;46.23;102032.09;5085865;28;20393;-51
2021/05/30 09:19:39;;;;;;;4.72;3.20;;;;;;;15.87;49.13;102034.03;5083294;28;20043;-52
2021/05/30 09:22:14;;;;;;;5.60;3.22;;;;;;;16.03;46.47;102029.53;5051525;28;20071;-51
2021/05/30 09:25:00;;;;;;;5.47;2.90;;;;;;;16.95;42.11;102027.13;5045931;28;20047;-51
2021/05/30 09:27:27;;;;;;;5.70;2.88;;;;;;;16.66;43.76;102022.94;5062014;28;20090;-52
2021/05/30 09:30:16;;;;;;;4.38;2.42;;;;;;;16.65;43.86;102027.34;5058655;28;20443;-50
2021/05/30 09:33:03;;;;;;;4.20;2.83;;;;;;;16.37;45.57;102021.41;5067047;28;20044;-51
2021/05/30 09:35:42;;;;;;;4.53;3.22;;;;;;;16.25;43.29;102025.00;5079925;28;20112;-50
2021/05/30 09:38:12;;;;;;;4.60;2.58;;;;;;;16.17;43.36;102021.53;5081386;28;20071;-52
2021/05/30 09:40:48;;;;;;;4.55;2.92;;;;;;;16.46;42.81;102018.72;5082237;28;20040;-49
2021/05/30 09:43:26;;;;;;;4.22;2.95;;;;;;;16.43;44.41;102013.44;5082767;28;20043;-53
2021/05/30 09:46:12;;;;;;;5.83;3.03;;;;;;;16.36;43.63;102016.16;5082244;28;20073;-51
2021/05/30 09:48:57;;;;;;;4.85;3.10;;;;;;;16.24;46.01;102007.44;5080604;28;20360;-52
2021/05/30 09:51:36;;;;;;;5.28;3.20;;;;;;;16.60;44.93;102010.69;5070508;28;20673;-52
2021/05/30 09:54:13;;;;;;;5.28;3.15;;;;;;;17.00;43.09;102014.72;5063513;27;20052;-50
2021/05/30 09:56:39;;;;;;;3.92;2.90;;;;;;;17.18;44.61;102013.66;5065171;28;20756;-54
2021/05/30 09:59:35;;;;;;;4.63;2.90;;;;;;;17.39;42.22;102012.56;5083285;28;20137;-50
2021/05/30 10:02:03;;;;;;;4.30;3.10;;;;;;;16.94;45.67;102005.09;5082659;28;20772;-55
2021/05/30 10:04:31;;;;;;;5.32;3.50;;;;;;;17.09;44.47;102003.22;5059939;28;20433;-53
2021/05/30 10:06:58;;;;;;;4.63;3.08;;;;;;;18.12;39.40;102004.56;5077832;28;20407;-50
2021/05/30 10:09:26;;;;;;;4.70;3.22;;;;;;;17.54;43.00;102003.53;5067796;28;21011;-50
2021/05/30 10:11:52;;;;;;;4.88;3.30;;;;;;;17.35;44.94;102003.78;5065608;28;20604;-50
2021/05/30 10:14:18;;;;;;;5.50;3.20;;;;;;;17.78;42.15;101996.22;5079377;28;20463;-51
2021/05/30 10:16:44;;;;;;;4.70;3.08;;;;;;;17.66;41.56;101991.94;5083577;28;20407;-50
2021/05/30 10:19:15;;;;;;;4.97;2.92;;;;;;;17.52;40.71;102000.06;5049216;28;20122;-50
2021/05/30 10:21:45;;;;;;;5.43;3.08;;;;;;;17.28;43.60;101988.00;5061947;28;20045;-52
2021/05/30 10:24:13;;;;;;;5.85;3.28;;;;;;;17.24;41.52;101997.75;5061557;27;20036;-54
2021/05/30 10:26:39;;;;;;;4.55;3.20;;;;;;;17.50;40.88;101999.19;5064273;27;20040;-50
2021/05/30 10:29:18;;;;;;;3.83;2.83;;;;;;;17.72;39.31;101983.91;5062643;28;20051;-51
2021/05/30 10:31:47;;;;;;;4.13;3.10;;;;;;;17.65;39.94;101988.44;5061564;28;20328;-52
2021/05/30 10:34:19;;;;;;;4.30;2.80;;;;;;;18.26;39.04;101985.81;5059731;27;20113;-51
2021/05/30 10:37:11;;;;;;;4.63;3.15;;;;;;;17.79;43.32;101984.72;5062354;27;20066;-51
2021/05/30 10:39:37;;;;;;;5.13;2.97;;;;;;;17.92;40.85;101983.69;5055777;27;20048;-57
2021/05/30 10:42:10;;;;;;;5.35;3.28;;;;;;;18.63;39.70;101982.56;5069202;28;20063;-51
2021/05/30 10:44:49;;;;;;;4.07;2.90;;;;;;;18.52;41.99;101976.56;5075245;28;20044;-50
2021/05/30 10:47:15;;;;;;;4.05;2.80;;;;;;;18.14;41.54;101975.44;5059152;28;20034;-51
2021/05/30 10:50:07;;;;;;;3.92;2.55;;;;;;;18.21;38.72;101972.66;5063589;28;20486;-51
2021/05/30 10:52:37;;;;;;;3.70;2.53;;;;;;;18.35;41.84;101975.09;5061182;28;20572;-54
2021/05/30 10:55:11;;;;;;;5.35;3.10;;;;;;;18.17;40.89;101959.50;5062778;27;20115;-54
2021/05/30 10:57:42;;;;;;;4.63;2.90;;;;;;;18.95;36.50;101965.22;5064062;28;20529;-50
2021/05/30 11:00:17;;;;;;;5.65;2.60;;;;;;;19.30;36.55;101962.78;5065603;28;20048;-51
2021/05/30 11:03:01;;;;;;;4.45;3.00;;;;;;;19.57;38.20;101953.38;5065373;27;20514;-51
2021/05/30 11:05:46;;;;;;;4.20;3.08;;;;;;;19.43;36.64;101951.03;5066531;28;20032;-50
2021/05/30 11:11:18;;;;;;;4.43;3.10;;;;;;;19.77;40.02;101944.09;5064081;28;20024;-50
2021/05/30 11:14:09;;;;;;;5.07;3.05;;;;;;;19.74;37.98;101945.94;5065435;28;21091;-55
2021/05/30 11:16:44;;;;;;;4.90;2.88;;;;;;;19.86;38.61;101938.63;5055339;28;20433;-51
2021/05/30 11:19:14;;;;;;;4.63;2.75;;;;;;;19.96;34.92;101937.47;5061851;27;20481;-52
2021/05/30 11:21:45;;;;;;;4.25;2.80;;;;;;;20.29;36.16;101936.72;5061638;28;20654;-51
2021/05/30 11:24:17;;;;;;;4.25;2.85;;;;;;;20.19;35.83;101939.59;5062184;27;20052;-53
2021/05/30 11:26:56;;;;;;;4.70;3.03;;;;;;;20.19;36.68;101930.75;5062656;27;20086;-53
2021/05/30 11:29:23;;;;;;;4.90;3.03;;;;;;;20.17;38.13;101927.25;5063023;27;20087;-54
2021/05/30 11:31:50;;;;;;;4.03;2.63;;;;;;;19.91;35.06;101926.13;5066017;28;20115;-51
2021/05/30 11:34:15;;;;;;;4.63;3.03;;;;;;;20.03;35.67;101922.28;5063228;28;20067;-51